sensor_id;sensor_type;location;lat;lon;timestamp;P1;durP1;ratioP1;P2;durP2;ratioP2
22737;SDS011;11536;50.860;4.286;2022-11-18T00:00:17;4.63;;;1.25;;
22737;SDS011;11536;50.860;4.286;2022-11-18T00:02:43;4.22;;;1.20;;
22737;SDS011;11536;50.860;4.286;2022-11-18T00:05:09;5.93;;;1.23;;
22737;SDS011;11536;50.860;4.286;2022-11-18T00:07:34;5.53;;;1.20;;
22737;SDS011;11536;50.860;4.286;2022-11-18T00:10:00;6.82;;;1.27;;
22737;SDS011;11536;50.860;4.286;2022-11-18T00:12:25;3.38;;;1.10;;
22737;SDS011;11536;50.860;4.286;2022-11-18T00:15:10;4.00;;;1.30;;
22737;SDS011;11536;50.860;4.286;2022-11-18T00:17:35;3.38;;;1.05;;
22737;SDS011;11536;50.860;4.286;2022-11-18T00:20:01;4.88;;;1.38;;
22737;SDS011;11536;50.860;4.286;2022-11-18T00:22:26;4.47;;;1.20;;
22737;SDS011;11536;50.860;4.286;2022-11-18T00:24:52;5.78;;;1.17;;
22737;SDS011;11536;50.860;4.286;2022-11-18T00:27:17;3.53;;;1.10;;
22737;SDS011;11536;50.860;4.286;2022-11-18T00:29:43;5.85;;;1.13;;
22737;SDS011;11536;50.860;4.286;2022-11-18T00:32:09;4.90;;;1.10;;
22737;SDS011;11536;50.860;4.286;2022-11-18T00:34:34;6.18;;;1.20;;
22737;SDS011;11536;50.860;4.286;2022-11-18T00:37:00;4.60;;;1.00;;
22737;SDS011;11536;50.860;4.286;2022-11-18T00:39:25;4.05;;;1.00;;
22737;SDS011;11536;50.860;4.286;2022-11-18T00:41:51;7.65;;;1.20;;
22737;SDS011;11536;50.860;4.286;2022-11-18T00:47:00;3.78;;;0.90;;
22737;SDS011;11536;50.860;4.286;2022-11-18T00:49:26;4.97;;;1.15;;
22737;SDS011;11536;50.860;4.286;2022-11-18T00:51:52;8.45;;;1.13;;
22737;SDS011;11536;50.860;4.286;2022-11-18T00:54:17;7.50;;;1.08;;
22737;SDS011;11536;50.860;4.286;2022-11-18T00:56:43;5.28;;;1.00;;
22737;SDS011;11536;50.860;4.286;2022-11-18T00:59:08;4.90;;;1.27;;
22737;SDS011;11536;50.860;4.286;2022-11-18T01:01:34;6.85;;;1.30;;
22737;SDS011;11536;50.860;4.286;2022-11-18T01:04:00;5.40;;;1.20;;
22737;SDS011;11536;50.860;4.286;2022-11-18T01:06:25;6.18;;;1.25;;
22737;SDS011;11536;50.860;4.286;2022-11-18T01:08:51;4.70;;;1.00;;
22737;SDS011;11536;50.860;4.286;2022-11-18T01:11:16;3.92;;;1.02;;
22737;SDS011;11536;50.860;4.286;2022-11-18T01:14:01;4.63;;;1.17;;
22737;SDS011;11536;50.860;4.286;2022-11-18T01:16:26;3.30;;;1.08;;
22737;SDS011;11536;50.860;4.286;2022-11-18T01:18:53;4.45;;;1.15;;
22737;SDS011;11536;50.860;4.286;2022-11-18T01:21:19;3.80;;;0.90;;
22737;SDS011;11536;50.860;4.286;2022-11-18T01:23:45;3.58;;;1.00;;
22737;SDS011;11536;50.860;4.286;2022-11-18T01:26:12;3.50;;;1.00;;
22737;SDS011;11536;50.860;4.286;2022-11-18T01:28:39;7.90;;;1.15;;
22737;SDS011;11536;50.860;4.286;2022-11-18T01:31:12;4.88;;;1.00;;
22737;SDS011;11536;50.860;4.286;2022-11-18T01:33:39;3.25;;;1.00;;
22737;SDS011;11536;50.860;4.286;2022-11-18T01:36:19;4.35;;;0.90;;
22737;SDS011;11536;50.860;4.286;2022-11-18T01:38:47;6.30;;;1.50;;
22737;SDS011;11536;50.860;4.286;2022-11-18T01:41:13;4.72;;;1.00;;
22737;SDS011;11536;50.860;4.286;2022-11-18T01:44:52;3.33;;;1.25;;
22737;SDS011;11536;50.860;4.286;2022-11-18T01:46:50;5.18;;;1.05;;
22737;SDS011;11536;50.860;4.286;2022-11-18T01:49:15;3.78;;;1.02;;
22737;SDS011;11536;50.860;4.286;2022-11-18T01:51:45;3.25;;;1.13;;
22737;SDS011;11536;50.860;4.286;2022-11-18T01:54:20;2.95;;;1.10;;
22737;SDS011;11536;50.860;4.286;2022-11-18T01:56:54;3.72;;;1.10;;
22737;SDS011;11536;50.860;4.286;2022-11-18T01:59:24;3.65;;;1.02;;
22737;SDS011;11536;50.860;4.286;2022-11-18T02:01:54;3.70;;;1.15;;
22737;SDS011;11536;50.860;4.286;2022-11-18T02:04:20;2.67;;;0.98;;
22737;SDS011;11536;50.860;4.286;2022-11-18T02:06:46;4.45;;;1.15;;
22737;SDS011;11536;50.860;4.286;2022-11-18T02:09:13;4.20;;;1.15;;
22737;SDS011;11536;50.860;4.286;2022-11-18T02:11:40;5.45;;;1.33;;
22737;SDS011;11536;50.860;4.286;2022-11-18T02:14:31;4.30;;;1.30;;
22737;SDS011;11536;50.860;4.286;2022-11-18T02:22:43;6.95;;;1.55;;
22737;SDS011;11536;50.860;4.286;2022-11-18T02:33:52;4.18;;;1.60;;
22737;SDS011;11536;50.860;4.286;2022-11-18T02:36:38;4.65;;;1.40;;
22737;SDS011;11536;50.860;4.286;2022-11-18T02:41:56;5.38;;;1.40;;
22737;SDS011;11536;50.860;4.286;2022-11-18T02:44:26;5.68;;;1.48;;
22737;SDS011;11536;50.860;4.286;2022-11-18T02:46:55;6.03;;;1.48;;
22737;SDS011;11536;50.860;4.286;2022-11-18T02:49:30;4.40;;;1.40;;
22737;SDS011;11536;50.860;4.286;2022-11-18T02:52:01;5.50;;;1.92;;
22737;SDS011;11536;50.860;4.286;2022-11-18T02:54:28;4.30;;;1.52;;
22737;SDS011;11536;50.860;4.286;2022-11-18T02:56:55;6.30;;;1.70;;
22737;SDS011;11536;50.860;4.286;2022-11-18T02:59:22;5.28;;;1.60;;
22737;SDS011;11536;50.860;4.286;2022-11-18T03:01:47;6.05;;;1.40;;
22737;SDS011;11536;50.860;4.286;2022-11-18T03:04:14;4.65;;;1.42;;
22737;SDS011;11536;50.860;4.286;2022-11-18T03:06:42;5.22;;;1.98;;
22737;SDS011;11536;50.860;4.286;2022-11-18T03:09:15;5.03;;;1.63;;
22737;SDS011;11536;50.860;4.286;2022-11-18T03:15:02;5.38;;;1.35;;
22737;SDS011;11536;50.860;4.286;2022-11-18T03:20:32;6.90;;;1.40;;
22737;SDS011;11536;50.860;4.286;2022-11-18T03:31:28;4.30;;;1.60;;
22737;SDS011;11536;50.860;4.286;2022-11-18T03:33:53;5.78;;;1.58;;
22737;SDS011;11536;50.860;4.286;2022-11-18T03:36:23;7.15;;;1.65;;
22737;SDS011;11536;50.860;4.286;2022-11-18T03:38:54;4.15;;;1.50;;
22737;SDS011;11536;50.860;4.286;2022-11-18T03:41:23;6.68;;;1.83;;
22737;SDS011;11536;50.860;4.286;2022-11-18T03:43:56;4.15;;;1.80;;
22737;SDS011;11536;50.860;4.286;2022-11-18T03:46:27;6.88;;;1.60;;
22737;SDS011;11536;50.860;4.286;2022-11-18T03:51:27;4.03;;;1.60;;
22737;SDS011;11536;50.860;4.286;2022-11-18T03:54:05;4.68;;;2.20;;
22737;SDS011;11536;50.860;4.286;2022-11-18T03:56:36;4.63;;;1.38;;
22737;SDS011;11536;50.860;4.286;2022-11-18T03:59:09;4.90;;;1.58;;
22737;SDS011;11536;50.860;4.286;2022-11-18T04:04:10;5.22;;;1.67;;
22737;SDS011;11536;50.860;4.286;2022-11-18T04:06:38;6.95;;;1.92;;
22737;SDS011;11536;50.860;4.286;2022-11-18T04:09:20;5.47;;;1.57;;
22737;SDS011;11536;50.860;4.286;2022-11-18T04:11:54;5.07;;;1.73;;
22737;SDS011;11536;50.860;4.286;2022-11-18T04:14:35;5.38;;;1.50;;
22737;SDS011;11536;50.860;4.286;2022-11-18T04:17:22;5.60;;;1.42;;
22737;SDS011;11536;50.860;4.286;2022-11-18T04:19:50;6.60;;;1.75;;
22737;SDS011;11536;50.860;4.286;2022-11-18T04:22:16;6.00;;;1.60;;
22737;SDS011;11536;50.860;4.286;2022-11-18T04:24:43;4.22;;;1.60;;
22737;SDS011;11536;50.860;4.286;2022-11-18T04:27:08;7.13;;;1.38;;
22737;SDS011;11536;50.860;4.286;2022-11-18T04:29:34;5.38;;;1.75;;
22737;SDS011;11536;50.860;4.286;2022-11-18T04:32:00;5.95;;;1.55;;
22737;SDS011;11536;50.860;4.286;2022-11-18T04:34:26;10.15;;;1.75;;
22737;SDS011;11536;50.860;4.286;2022-11-18T04:36:52;6.13;;;1.50;;
22737;SDS011;11536;50.860;4.286;2022-11-18T04:39:18;4.20;;;1.38;;
22737;SDS011;11536;50.860;4.286;2022-11-18T04:41:44;5.60;;;1.33;;
22737;SDS011;11536;50.860;4.286;2022-11-18T04:46:52;4.28;;;1.95;;
22737;SDS011;11536;50.860;4.286;2022-11-18T04:49:19;4.55;;;1.30;;
22737;SDS011;11536;50.860;4.286;2022-11-18T04:51:45;4.78;;;1.25;;
22737;SDS011;11536;50.860;4.286;2022-11-18T04:54:11;4.95;;;1.33;;
22737;SDS011;11536;50.860;4.286;2022-11-18T04:56:38;3.88;;;1.40;;
22737;SDS011;11536;50.860;4.286;2022-11-18T04:59:04;6.05;;;1.80;;
22737;SDS011;11536;50.860;4.286;2022-11-18T05:01:30;4.50;;;1.42;;
22737;SDS011;11536;50.860;4.286;2022-11-18T05:03:56;7.18;;;1.65;;
22737;SDS011;11536;50.860;4.286;2022-11-18T05:06:23;7.47;;;1.60;;
22737;SDS011;11536;50.860;4.286;2022-11-18T05:08:49;10.70;;;2.33;;
22737;SDS011;11536;50.860;4.286;2022-11-18T05:11:14;4.35;;;1.15;;
22737;SDS011;11536;50.860;4.286;2022-11-18T05:13:59;8.00;;;1.30;;
22737;SDS011;11536;50.860;4.286;2022-11-18T05:16:24;4.88;;;1.50;;
22737;SDS011;11536;50.860;4.286;2022-11-18T05:18:50;4.78;;;1.40;;
22737;SDS011;11536;50.860;4.286;2022-11-18T05:21:16;8.38;;;1.58;;
22737;SDS011;11536;50.860;4.286;2022-11-18T05:23:41;6.78;;;1.40;;
22737;SDS011;11536;50.860;4.286;2022-11-18T05:26:08;7.90;;;1.45;;
22737;SDS011;11536;50.860;4.286;2022-11-18T05:28:34;6.90;;;1.45;;
22737;SDS011;11536;50.860;4.286;2022-11-18T05:31:07;5.22;;;1.30;;
22737;SDS011;11536;50.860;4.286;2022-11-18T05:33:33;7.75;;;1.48;;
22737;SDS011;11536;50.860;4.286;2022-11-18T05:36:03;4.13;;;1.05;;
22737;SDS011;11536;50.860;4.286;2022-11-18T05:38:33;8.32;;;1.50;;
22737;SDS011;11536;50.860;4.286;2022-11-18T05:40:59;6.22;;;1.33;;
22737;SDS011;11536;50.860;4.286;2022-11-18T05:43:26;7.00;;;1.63;;
22737;SDS011;11536;50.860;4.286;2022-11-18T05:45:52;4.47;;;1.30;;
22737;SDS011;11536;50.860;4.286;2022-11-18T05:48:17;7.55;;;1.30;;
22737;SDS011;11536;50.860;4.286;2022-11-18T05:50:46;9.63;;;1.85;;
22737;SDS011;11536;50.860;4.286;2022-11-18T05:53:14;7.00;;;1.58;;
22737;SDS011;11536;50.860;4.286;2022-11-18T05:56:26;6.85;;;1.75;;
22737;SDS011;11536;50.860;4.286;2022-11-18T05:58:29;5.40;;;1.30;;
22737;SDS011;11536;50.860;4.286;2022-11-18T06:00:55;6.00;;;1.67;;
22737;SDS011;11536;50.860;4.286;2022-11-18T06:03:28;7.20;;;1.60;;
22737;SDS011;11536;50.860;4.286;2022-11-18T06:05:59;5.32;;;1.75;;
22737;SDS011;11536;50.860;4.286;2022-11-18T06:08:28;6.97;;;1.70;;
22737;SDS011;11536;50.860;4.286;2022-11-18T06:11:01;9.40;;;1.95;;
22737;SDS011;11536;50.860;4.286;2022-11-18T06:13:32;8.13;;;1.52;;
22737;SDS011;11536;50.860;4.286;2022-11-18T06:16:04;6.72;;;1.52;;
22737;SDS011;11536;50.860;4.286;2022-11-18T06:18:30;8.00;;;1.60;;
22737;SDS011;11536;50.860;4.286;2022-11-18T06:20:58;10.48;;;2.28;;
22737;SDS011;11536;50.860;4.286;2022-11-18T06:23:27;5.18;;;1.65;;
22737;SDS011;11536;50.860;4.286;2022-11-18T06:25:55;7.63;;;1.77;;
22737;SDS011;11536;50.860;4.286;2022-11-18T06:28:20;8.45;;;1.92;;
22737;SDS011;11536;50.860;4.286;2022-11-18T06:30:48;6.38;;;1.70;;
22737;SDS011;11536;50.860;4.286;2022-11-18T06:33:13;10.27;;;2.10;;
22737;SDS011;11536;50.860;4.286;2022-11-18T06:35:40;6.53;;;1.58;;
22737;SDS011;11536;50.860;4.286;2022-11-18T06:38:06;5.40;;;1.50;;
22737;SDS011;11536;50.860;4.286;2022-11-18T06:40:32;9.55;;;2.28;;
22737;SDS011;11536;50.860;4.286;2022-11-18T06:43:03;7.00;;;1.63;;
22737;SDS011;11536;50.860;4.286;2022-11-18T06:45:48;7.00;;;1.88;;
22737;SDS011;11536;50.860;4.286;2022-11-18T06:48:35;6.35;;;1.73;;
22737;SDS011;11536;50.860;4.286;2022-11-18T06:51:04;5.05;;;1.42;;
22737;SDS011;11536;50.860;4.286;2022-11-18T06:53:30;6.03;;;1.50;;
22737;SDS011;11536;50.860;4.286;2022-11-18T06:56:01;6.45;;;1.70;;
22737;SDS011;11536;50.860;4.286;2022-11-18T06:58:30;9.10;;;2.40;;
22737;SDS011;11536;50.860;4.286;2022-11-18T07:00:56;6.95;;;1.95;;
22737;SDS011;11536;50.860;4.286;2022-11-18T07:03:21;5.07;;;1.70;;
22737;SDS011;11536;50.860;4.286;2022-11-18T07:05:47;8.40;;;1.70;;
22737;SDS011;11536;50.860;4.286;2022-11-18T07:08:13;5.95;;;1.85;;
22737;SDS011;11536;50.860;4.286;2022-11-18T07:10:38;6.30;;;1.58;;
22737;SDS011;11536;50.860;4.286;2022-11-18T07:13:04;8.27;;;2.08;;
22737;SDS011;11536;50.860;4.286;2022-11-18T07:15:29;6.30;;;1.83;;
22737;SDS011;11536;50.860;4.286;2022-11-18T07:17:55;8.15;;;2.15;;
22737;SDS011;11536;50.860;4.286;2022-11-18T07:20:20;6.43;;;1.85;;
22737;SDS011;11536;50.860;4.286;2022-11-18T07:22:46;6.18;;;1.40;;
22737;SDS011;11536;50.860;4.286;2022-11-18T07:25:11;5.63;;;1.70;;
22737;SDS011;11536;50.860;4.286;2022-11-18T07:27:37;11.13;;;2.30;;
22737;SDS011;11536;50.860;4.286;2022-11-18T07:30:03;8.48;;;2.08;;
22737;SDS011;11536;50.860;4.286;2022-11-18T07:32:28;7.95;;;1.88;;
22737;SDS011;11536;50.860;4.286;2022-11-18T07:34:56;10.52;;;2.05;;
22737;SDS011;11536;50.860;4.286;2022-11-18T07:37:22;7.72;;;1.98;;
22737;SDS011;11536;50.860;4.286;2022-11-18T07:39:47;7.35;;;1.90;;
22737;SDS011;11536;50.860;4.286;2022-11-18T07:42:13;7.88;;;1.60;;
22737;SDS011;11536;50.860;4.286;2022-11-18T07:44:38;8.35;;;1.80;;
22737;SDS011;11536;50.860;4.286;2022-11-18T07:47:04;6.88;;;2.10;;
22737;SDS011;11536;50.860;4.286;2022-11-18T07:49:29;7.72;;;1.98;;
22737;SDS011;11536;50.860;4.286;2022-11-18T07:51:55;9.35;;;2.35;;
22737;SDS011;11536;50.860;4.286;2022-11-18T07:54:21;8.48;;;2.00;;
22737;SDS011;11536;50.860;4.286;2022-11-18T07:56:46;9.40;;;2.10;;
22737;SDS011;11536;50.860;4.286;2022-11-18T07:59:12;7.65;;;2.00;;
22737;SDS011;11536;50.860;4.286;2022-11-18T08:01:37;5.93;;;2.00;;
22737;SDS011;11536;50.860;4.286;2022-11-18T08:04:04;6.75;;;2.00;;
22737;SDS011;11536;50.860;4.286;2022-11-18T08:06:36;10.95;;;3.35;;
22737;SDS011;11536;50.860;4.286;2022-11-18T08:09:02;8.38;;;2.10;;
22737;SDS011;11536;50.860;4.286;2022-11-18T08:11:29;7.63;;;3.10;;
22737;SDS011;11536;50.860;4.286;2022-11-18T08:13:54;8.70;;;1.92;;
22737;SDS011;11536;50.860;4.286;2022-11-18T08:16:21;8.32;;;2.00;;
22737;SDS011;11536;50.860;4.286;2022-11-18T08:18:49;8.00;;;2.20;;
22737;SDS011;11536;50.860;4.286;2022-11-18T08:21:15;5.57;;;2.00;;
22737;SDS011;11536;50.860;4.286;2022-11-18T08:23:42;7.32;;;2.20;;
22737;SDS011;11536;50.860;4.286;2022-11-18T08:26:13;9.13;;;3.55;;
22737;SDS011;11536;50.860;4.286;2022-11-18T08:28:39;12.18;;;6.22;;
22737;SDS011;11536;50.860;4.286;2022-11-18T08:31:13;8.15;;;3.58;;
22737;SDS011;11536;50.860;4.286;2022-11-18T08:33:54;8.70;;;2.65;;
22737;SDS011;11536;50.860;4.286;2022-11-18T08:36:24;12.75;;;2.20;;
22737;SDS011;11536;50.860;4.286;2022-11-18T08:38:51;8.98;;;2.50;;
22737;SDS011;11536;50.860;4.286;2022-11-18T08:41:20;6.78;;;2.35;;
22737;SDS011;11536;50.860;4.286;2022-11-18T08:43:55;13.30;;;3.40;;
22737;SDS011;11536;50.860;4.286;2022-11-18T08:46:20;8.85;;;2.90;;
22737;SDS011;11536;50.860;4.286;2022-11-18T08:48:47;7.10;;;2.58;;
22737;SDS011;11536;50.860;4.286;2022-11-18T08:51:12;10.30;;;4.03;;
22737;SDS011;11536;50.860;4.286;2022-11-18T08:53:39;9.60;;;2.63;;
22737;SDS011;11536;50.860;4.286;2022-11-18T08:56:05;8.88;;;3.03;;
22737;SDS011;11536;50.860;4.286;2022-11-18T08:58:31;8.20;;;2.65;;
22737;SDS011;11536;50.860;4.286;2022-11-18T09:00:57;6.85;;;2.00;;
22737;SDS011;11536;50.860;4.286;2022-11-18T09:03:28;12.60;;;9.07;;
22737;SDS011;11536;50.860;4.286;2022-11-18T09:05:53;10.88;;;3.58;;
22737;SDS011;11536;50.860;4.286;2022-11-18T09:08:39;7.13;;;2.20;;
22737;SDS011;11536;50.860;4.286;2022-11-18T09:11:06;8.27;;;3.63;;
22737;SDS011;11536;50.860;4.286;2022-11-18T09:13:42;7.88;;;2.58;;
22737;SDS011;11536;50.860;4.286;2022-11-18T09:16:08;9.18;;;2.65;;
22737;SDS011;11536;50.860;4.286;2022-11-18T09:18:34;7.72;;;1.92;;
22737;SDS011;11536;50.860;4.286;2022-11-18T09:21:04;11.23;;;2.25;;
22737;SDS011;11536;50.860;4.286;2022-11-18T09:23:32;9.35;;;2.22;;
22737;SDS011;11536;50.860;4.286;2022-11-18T09:26:03;7.68;;;2.10;;
22737;SDS011;11536;50.860;4.286;2022-11-18T09:28:39;11.85;;;2.70;;
22737;SDS011;11536;50.860;4.286;2022-11-18T09:31:05;8.82;;;1.90;;
22737;SDS011;11536;50.860;4.286;2022-11-18T09:33:32;11.35;;;2.10;;
22737;SDS011;11536;50.860;4.286;2022-11-18T09:36:02;12.68;;;2.28;;
22737;SDS011;11536;50.860;4.286;2022-11-18T09:38:29;7.60;;;2.00;;
22737;SDS011;11536;50.860;4.286;2022-11-18T09:49:12;5.25;;;1.85;;
22737;SDS011;11536;50.860;4.286;2022-11-18T09:51:44;5.18;;;2.08;;
22737;SDS011;11536;50.860;4.286;2022-11-18T09:54:24;6.88;;;1.77;;
22737;SDS011;11536;50.860;4.286;2022-11-18T09:56:54;7.70;;;1.50;;
22737;SDS011;11536;50.860;4.286;2022-11-18T09:59:21;6.57;;;1.73;;
22737;SDS011;11536;50.860;4.286;2022-11-18T10:01:51;7.90;;;1.60;;
22737;SDS011;11536;50.860;4.286;2022-11-18T10:04:20;8.60;;;1.67;;
22737;SDS011;11536;50.860;4.286;2022-11-18T10:06:46;9.55;;;1.63;;
22737;SDS011;11536;50.860;4.286;2022-11-18T10:18:00;6.35;;;1.60;;
22737;SDS011;11536;50.860;4.286;2022-11-18T10:23:32;8.18;;;1.50;;
22737;SDS011;11536;50.860;4.286;2022-11-18T10:26:04;7.80;;;1.58;;
22737;SDS011;11536;50.860;4.286;2022-11-18T10:28:30;5.88;;;1.52;;
22737;SDS011;11536;50.860;4.286;2022-11-18T10:31:03;8.73;;;1.73;;
22737;SDS011;11536;50.860;4.286;2022-11-18T10:33:33;11.27;;;1.50;;
22737;SDS011;11536;50.860;4.286;2022-11-18T10:39:05;5.82;;;1.35;;
22737;SDS011;11536;50.860;4.286;2022-11-18T10:41:46;6.75;;;1.58;;
22737;SDS011;11536;50.860;4.286;2022-11-18T10:49:51;5.25;;;1.40;;
22737;SDS011;11536;50.860;4.286;2022-11-18T10:52:17;7.88;;;1.83;;
22737;SDS011;11536;50.860;4.286;2022-11-18T10:54:43;7.93;;;1.50;;
22737;SDS011;11536;50.860;4.286;2022-11-18T10:57:17;6.00;;;1.63;;
22737;SDS011;11536;50.860;4.286;2022-11-18T10:59:47;6.72;;;1.70;;
22737;SDS011;11536;50.860;4.286;2022-11-18T11:04:58;6.07;;;1.50;;
22737;SDS011;11536;50.860;4.286;2022-11-18T11:07:27;8.55;;;1.63;;
22737;SDS011;11536;50.860;4.286;2022-11-18T11:12:30;8.82;;;1.42;;
22737;SDS011;11536;50.860;4.286;2022-11-18T11:15:08;8.50;;;1.77;;
22737;SDS011;11536;50.860;4.286;2022-11-18T11:18:20;6.22;;;1.63;;
22737;SDS011;11536;50.860;4.286;2022-11-18T11:20:59;6.30;;;1.75;;
22737;SDS011;11536;50.860;4.286;2022-11-18T11:23:24;6.47;;;1.73;;
22737;SDS011;11536;50.860;4.286;2022-11-18T11:25:58;8.00;;;1.70;;
22737;SDS011;11536;50.860;4.286;2022-11-18T11:28:43;5.65;;;1.60;;
22737;SDS011;11536;50.860;4.286;2022-11-18T11:34:11;4.93;;;1.40;;
22737;SDS011;11536;50.860;4.286;2022-11-18T11:36:50;7.78;;;1.70;;
22737;SDS011;11536;50.860;4.286;2022-11-18T11:53:56;4.32;;;1.50;;
22737;SDS011;11536;50.860;4.286;2022-11-18T12:06:45;7.88;;;1.52;;
22737;SDS011;11536;50.860;4.286;2022-11-18T12:12:11;8.18;;;1.60;;
22737;SDS011;11536;50.860;4.286;2022-11-18T12:15:09;5.93;;;1.40;;
22737;SDS011;11536;50.860;4.286;2022-11-18T12:23:21;8.65;;;1.48;;
22737;SDS011;11536;50.860;4.286;2022-11-18T12:26:09;7.38;;;1.30;;
22737;SDS011;11536;50.860;4.286;2022-11-18T12:28:39;8.00;;;1.50;;
22737;SDS011;11536;50.860;4.286;2022-11-18T12:33:52;6.07;;;1.30;;
22737;SDS011;11536;50.860;4.286;2022-11-18T12:36:30;6.93;;;1.38;;
22737;SDS011;11536;50.860;4.286;2022-11-18T12:44:43;6.32;;;2.03;;
22737;SDS011;11536;50.860;4.286;2022-11-18T12:47:13;9.50;;;1.67;;
22737;SDS011;11536;50.860;4.286;2022-11-18T12:54:53;6.63;;;1.40;;
22737;SDS011;11536;50.860;4.286;2022-11-18T12:57:32;8.52;;;1.60;;
22737;SDS011;11536;50.860;4.286;2022-11-18T13:03:20;5.72;;;1.55;;
22737;SDS011;11536;50.860;4.286;2022-11-18T13:05:48;6.00;;;1.70;;
22737;SDS011;11536;50.860;4.286;2022-11-18T13:08:15;6.47;;;1.67;;
22737;SDS011;11536;50.860;4.286;2022-11-18T13:13:18;6.45;;;2.00;;
22737;SDS011;11536;50.860;4.286;2022-11-18T13:15:51;5.63;;;2.10;;
22737;SDS011;11536;50.860;4.286;2022-11-18T13:18:47;8.35;;;2.10;;
22737;SDS011;11536;50.860;4.286;2022-11-18T13:21:19;11.35;;;2.22;;
22737;SDS011;11536;50.860;4.286;2022-11-18T13:24:11;7.45;;;2.05;;
22737;SDS011;11536;50.860;4.286;2022-11-18T13:26:41;6.25;;;1.77;;
22737;SDS011;11536;50.860;4.286;2022-11-18T13:32:16;10.00;;;2.13;;
22737;SDS011;11536;50.860;4.286;2022-11-18T13:37:21;6.78;;;1.73;;
22737;SDS011;11536;50.860;4.286;2022-11-18T13:39:49;4.32;;;1.40;;
22737;SDS011;11536;50.860;4.286;2022-11-18T13:42:16;7.10;;;1.60;;
22737;SDS011;11536;50.860;4.286;2022-11-18T13:44:54;6.97;;;1.80;;
22737;SDS011;11536;50.860;4.286;2022-11-18T13:47:28;5.78;;;1.70;;
22737;SDS011;11536;50.860;4.286;2022-11-18T13:55:31;8.52;;;1.60;;
22737;SDS011;11536;50.860;4.286;2022-11-18T14:00:52;9.32;;;1.77;;
22737;SDS011;11536;50.860;4.286;2022-11-18T14:05:55;7.97;;;1.58;;
22737;SDS011;11536;50.860;4.286;2022-11-18T14:08:26;6.68;;;1.42;;
22737;SDS011;11536;50.860;4.286;2022-11-18T14:10:54;5.30;;;1.40;;
22737;SDS011;11536;50.860;4.286;2022-11-18T14:15:54;8.23;;;1.85;;
22737;SDS011;11536;50.860;4.286;2022-11-18T14:18:46;9.70;;;1.70;;
22737;SDS011;11536;50.860;4.286;2022-11-18T14:21:24;7.40;;;1.92;;
22737;SDS011;11536;50.860;4.286;2022-11-18T14:23:55;12.43;;;2.20;;
22737;SDS011;11536;50.860;4.286;2022-11-18T14:26:25;9.07;;;2.40;;
22737;SDS011;11536;50.860;4.286;2022-11-18T14:29:00;8.50;;;1.90;;
22737;SDS011;11536;50.860;4.286;2022-11-18T14:31:28;9.70;;;1.52;;
22737;SDS011;11536;50.860;4.286;2022-11-18T14:36:50;10.35;;;2.33;;
22737;SDS011;11536;50.860;4.286;2022-11-18T14:39:26;7.93;;;2.10;;
22737;SDS011;11536;50.860;4.286;2022-11-18T14:41:56;11.48;;;1.98;;
22737;SDS011;11536;50.860;4.286;2022-11-18T14:44:23;7.35;;;1.73;;
22737;SDS011;11536;50.860;4.286;2022-11-18T14:46:51;9.48;;;2.13;;
22737;SDS011;11536;50.860;4.286;2022-11-18T14:49:22;9.50;;;2.45;;
22737;SDS011;11536;50.860;4.286;2022-11-18T14:51:49;9.32;;;1.92;;
22737;SDS011;11536;50.860;4.286;2022-11-18T14:54:17;8.18;;;1.77;;
22737;SDS011;11536;50.860;4.286;2022-11-18T14:56:45;10.57;;;2.13;;
22737;SDS011;11536;50.860;4.286;2022-11-18T14:59:13;12.05;;;2.20;;
22737;SDS011;11536;50.860;4.286;2022-11-18T15:01:41;10.93;;;2.60;;
22737;SDS011;11536;50.860;4.286;2022-11-18T15:04:07;9.63;;;2.60;;
22737;SDS011;11536;50.860;4.286;2022-11-18T15:06:33;6.55;;;1.70;;
22737;SDS011;11536;50.860;4.286;2022-11-18T15:08:59;7.32;;;2.08;;
22737;SDS011;11536;50.860;4.286;2022-11-18T15:11:24;8.13;;;1.80;;
22737;SDS011;11536;50.860;4.286;2022-11-18T15:13:50;10.20;;;2.03;;
22737;SDS011;11536;50.860;4.286;2022-11-18T15:16:17;11.20;;;2.50;;
22737;SDS011;11536;50.860;4.286;2022-11-18T15:18:52;7.88;;;1.80;;
22737;SDS011;11536;50.860;4.286;2022-11-18T15:21:20;7.03;;;1.65;;
22737;SDS011;11536;50.860;4.286;2022-11-18T15:23:46;5.90;;;1.70;;
22737;SDS011;11536;50.860;4.286;2022-11-18T15:26:16;5.07;;;1.75;;
22737;SDS011;11536;50.860;4.286;2022-11-18T15:28:47;8.63;;;1.83;;
22737;SDS011;11536;50.860;4.286;2022-11-18T15:31:14;9.45;;;2.00;;
22737;SDS011;11536;50.860;4.286;2022-11-18T15:33:41;6.25;;;2.03;;
22737;SDS011;11536;50.860;4.286;2022-11-18T15:36:11;5.97;;;1.42;;
22737;SDS011;11536;50.860;4.286;2022-11-18T15:38:39;9.18;;;1.40;;
22737;SDS011;11536;50.860;4.286;2022-11-18T15:41:06;4.07;;;1.25;;
22737;SDS011;11536;50.860;4.286;2022-11-18T15:44:02;6.63;;;1.50;;
22737;SDS011;11536;50.860;4.286;2022-11-18T15:46:27;7.50;;;1.50;;
22737;SDS011;11536;50.860;4.286;2022-11-18T15:48:57;10.30;;;1.50;;
22737;SDS011;11536;50.860;4.286;2022-11-18T15:51:25;7.47;;;1.70;;
22737;SDS011;11536;50.860;4.286;2022-11-18T15:53:52;9.25;;;1.58;;
22737;SDS011;11536;50.860;4.286;2022-11-18T15:58:53;7.53;;;1.35;;
22737;SDS011;11536;50.860;4.286;2022-11-18T16:01:25;7.03;;;1.40;;
22737;SDS011;11536;50.860;4.286;2022-11-18T16:03:53;7.53;;;1.80;;
22737;SDS011;11536;50.860;4.286;2022-11-18T16:06:19;11.48;;;2.03;;
22737;SDS011;11536;50.860;4.286;2022-11-18T16:08:44;5.13;;;1.40;;
22737;SDS011;11536;50.860;4.286;2022-11-18T16:11:11;9.63;;;2.03;;
22737;SDS011;11536;50.860;4.286;2022-11-18T16:14:04;10.07;;;2.78;;
22737;SDS011;11536;50.860;4.286;2022-11-18T16:16:31;8.27;;;2.00;;
22737;SDS011;11536;50.860;4.286;2022-11-18T16:19:03;7.63;;;1.70;;
22737;SDS011;11536;50.860;4.286;2022-11-18T16:21:31;8.32;;;2.08;;
22737;SDS011;11536;50.860;4.286;2022-11-18T16:23:59;8.02;;;2.05;;
22737;SDS011;11536;50.860;4.286;2022-11-18T16:26:48;6.50;;;1.80;;
22737;SDS011;11536;50.860;4.286;2022-11-18T16:29:14;7.88;;;2.00;;
22737;SDS011;11536;50.860;4.286;2022-11-18T16:31:41;7.20;;;2.05;;
22737;SDS011;11536;50.860;4.286;2022-11-18T16:34:09;12.60;;;2.55;;
22737;SDS011;11536;50.860;4.286;2022-11-18T16:36:42;9.95;;;2.92;;
22737;SDS011;11536;50.860;4.286;2022-11-18T16:39:16;13.05;;;3.53;;
22737;SDS011;11536;50.860;4.286;2022-11-18T16:41:50;11.13;;;2.75;;
22737;SDS011;11536;50.860;4.286;2022-11-18T16:44:16;9.70;;;2.47;;
22737;SDS011;11536;50.860;4.286;2022-11-18T16:46:52;12.02;;;3.17;;
22737;SDS011;11536;50.860;4.286;2022-11-18T16:49:21;9.98;;;2.65;;
22737;SDS011;11536;50.860;4.286;2022-11-18T16:51:51;10.23;;;2.50;;
22737;SDS011;11536;50.860;4.286;2022-11-18T16:54:19;13.35;;;3.05;;
22737;SDS011;11536;50.860;4.286;2022-11-18T16:56:45;9.80;;;2.47;;
22737;SDS011;11536;50.860;4.286;2022-11-18T16:59:22;12.50;;;4.40;;
22737;SDS011;11536;50.860;4.286;2022-11-18T17:01:49;13.27;;;5.75;;
22737;SDS011;11536;50.860;4.286;2022-11-18T17:04:15;19.50;;;4.13;;
22737;SDS011;11536;50.860;4.286;2022-11-18T17:06:42;12.18;;;4.30;;
22737;SDS011;11536;50.860;4.286;2022-11-18T17:09:14;11.85;;;5.93;;
22737;SDS011;11536;50.860;4.286;2022-11-18T17:11:41;8.40;;;3.00;;
22737;SDS011;11536;50.860;4.286;2022-11-18T17:14:07;8.23;;;2.92;;
22737;SDS011;11536;50.860;4.286;2022-11-18T17:16:32;8.23;;;3.20;;
22737;SDS011;11536;50.860;4.286;2022-11-18T17:18:58;8.77;;;2.97;;
22737;SDS011;11536;50.860;4.286;2022-11-18T17:21:25;8.88;;;2.70;;
22737;SDS011;11536;50.860;4.286;2022-11-18T17:23:52;9.15;;;2.60;;
22737;SDS011;11536;50.860;4.286;2022-11-18T17:26:19;8.13;;;2.85;;
22737;SDS011;11536;50.860;4.286;2022-11-18T17:28:46;6.45;;;2.42;;
22737;SDS011;11536;50.860;4.286;2022-11-18T17:31:13;6.05;;;2.42;;
22737;SDS011;11536;50.860;4.286;2022-11-18T17:33:40;9.45;;;2.70;;
22737;SDS011;11536;50.860;4.286;2022-11-18T17:36:10;12.10;;;3.05;;